METAR Data

Data at: 2257 UTC 26 Feb 2020

METAR for:KBVY (Beverly Muni, MA, US)
Text:KBVY 262253Z 05006KT 7SM OVC002 06/04 A2997 RMK AO2 SLP145 T00560044
Temperature: 5.6°C ( 42°F)
Dewpoint: 4.4°C ( 40°F) [RH = 92%]
Pressure (altimeter):29.97 inches Hg (1015.0 mb) [Sea level pressure: 1014.5 mb]
Winds:from the NE (50 degrees) at 7 MPH (6 knots; 3.1 m/s)
Visibility: 7 sm ( 11 km)
Ceiling:200 feet AGL
Clouds: overcast cloud deck at 200 feet AGL